Time;durP1;ratioP1;P1;durP2;ratioP2;P2;SDS_P1;SDS_P2;PMS_P1;PMS_P2;Temp;Humidity;BMP_temperature;BMP_pressure;BME280_temperature;BME280_humidity;BME280_pressure;Samples;Min_cycle;Max_cycle;Signal;HPM_P1;HPM_P2
2020/12/28 00:00:20;;;;;;;42.20;23.67;;;-0.70;1.00;;;;;;4803953;28;20716;-75
2020/12/28 00:02:42;;;;;;;32.37;15.87;;;-0.60;1.00;;;;;;4815804;28;20645;-79
2020/12/28 00:05:06;;;;;;;28.00;14.20;;;-0.60;1.00;;;;;;4800383;28;20678;-79
2020/12/28 00:07:29;;;;;;;29.87;15.27;;;-0.30;99.90;;;;;;4781483;28;20658;-77
2020/12/28 00:09:51;;;;;;;25.80;12.50;;;-0.30;1.00;;;;;;4797760;28;20646;-74
2020/12/28 00:12:13;;;;;;;22.60;12.27;;;-0.30;99.90;;;;;;4801535;28;20626;-80
2020/12/28 00:14:35;;;;;;;22.53;11.97;;;0.20;1.00;;;;;;4801221;28;21239;-73
2020/12/28 00:16:58;;;;;;;22.23;11.43;;;0.00;1.00;;;;;;4801388;28;21157;-74
2020/12/28 00:19:20;;;;;;;17.90;9.63;;;0.10;99.90;;;;;;4800902;28;20665;-73
2020/12/28 00:21:43;;;;;;;15.17;9.33;;;0.10;99.90;;;;;;4807530;28;20204;-73
2020/12/28 00:24:05;;;;;;;14.53;8.83;;;0.20;99.90;;;;;;4765651;28;20198;-76
2020/12/28 00:26:27;;;;;;;14.93;9.13;;;0.30;99.90;;;;;;4782873;28;20631;-73
2020/12/28 00:28:49;;;;;;;16.53;9.07;;;0.30;99.90;;;;;;4801354;28;20696;-73
2020/12/28 00:31:12;;;;;;;16.37;8.70;;;0.40;1.00;;;;;;4782219;28;20233;-73
2020/12/28 00:33:35;;;;;;;13.87;7.70;;;0.40;1.00;;;;;;4800560;28;20188;-73
2020/12/28 00:35:57;;;;;;;14.33;8.97;;;0.20;1.00;;;;;;4801054;28;20188;-74
2020/12/28 00:38:19;;;;;;;12.97;8.17;;;0.20;1.00;;;;;;4800469;28;20267;-73
2020/12/28 00:40:41;;;;;;;13.67;8.07;;;0.30;1.00;;;;;;4783902;28;20615;-73
2020/12/28 00:43:03;;;;;;;16.20;8.90;;;0.30;1.00;;;;;;4801232;28;20199;-73
2020/12/28 00:45:25;;;;;;;20.13;10.57;;;0.40;62.20;;;;;;4793094;28;20619;-72
2020/12/28 00:47:47;;;;;;;17.00;9.93;;;0.40;1.00;;;;;;4800354;28;20219;-78
2020/12/28 00:50:10;;;;;;;14.63;8.87;;;0.30;1.00;;;;;;4793017;28;20673;-73
2020/12/28 00:52:33;;;;;;;17.23;10.13;;;0.30;1.00;;;;;;4788984;28;20653;-73
2020/12/28 00:54:55;;;;;;;17.73;10.47;;;0.30;93.30;;;;;;4791726;28;20619;-73
2020/12/28 00:57:18;;;;;;;19.33;10.97;;;0.30;99.90;;;;;;4780650;28;20655;-73
2020/12/28 00:59:41;;;;;;;14.83;8.30;;;0.30;99.90;;;;;;4801706;28;20671;-73
2020/12/28 01:02:05;;;;;;;11.63;6.17;;;0.70;1.00;;;;;;4780810;28;20654;-73
2020/12/28 01:04:34;;;;;;;6.37;3.50;;;0.60;1.00;;;;;;4781327;28;20627;-72
2020/12/28 01:07:03;;;;;;;6.30;3.70;;;1.00;1.00;;;;;;4782909;28;20627;-73
2020/12/28 01:09:43;;;;;;;3.30;2.53;;;1.30;1.00;;;;;;4792432;28;20570;-74
2020/12/28 01:12:07;;;;;;;1.60;1.20;;;1.50;1.00;;;;;;4799862;28;20192;-79
2020/12/28 01:14:29;;;;;;;1.57;1.47;;;2.00;1.00;;;;;;4748557;29;20727;-73
2020/12/28 01:16:52;;;;;;;1.10;1.00;;;2.90;1.00;;;;;;4783574;28;20240;-76
2020/12/28 01:19:15;;;;;;;1.47;1.00;;;2.80;1.00;;;;;;4781907;28;20228;-78
2020/12/28 01:21:38;;;;;;;0.87;0.87;;;3.60;1.00;;;;;;4782638;28;20664;-75
2020/12/28 01:24:04;;;;;;;0.87;0.80;;;3.80;99.90;;;;;;4781795;28;20208;-76
2020/12/28 01:26:28;;;;;;;1.00;0.90;;;3.80;99.90;;;;;;4804345;28;20196;-75
2020/12/28 01:28:55;;;;;;;0.90;0.90;;;4.10;1.00;;;;;;4778297;28;20227;-77
2020/12/28 01:31:20;;;;;;;1.60;0.80;;;4.50;99.90;;;;;;4798506;28;20239;-76
2020/12/28 01:34:00;;;;;;;1.10;1.00;;;4.60;1.00;;;;;;4799752;28;20234;-75
2020/12/28 01:36:28;;;;;;;0.83;0.73;;;4.70;1.00;;;;;;4760757;28;20257;-76
2020/12/28 01:38:50;;;;;;;0.70;0.70;;;4.90;99.90;;;;;;4800188;28;20211;-74
2020/12/28 01:41:13;;;;;;;1.80;1.70;;;5.00;1.00;;;;;;4778825;28;20213;-75
2020/12/28 01:43:40;;;;;;;1.20;1.10;;;5.10;99.90;;;;;;4802916;28;20302;-78
2020/12/28 01:46:03;;;;;;;1.10;1.00;;;5.20;1.00;;;;;;4782643;28;20240;-75
2020/12/28 01:48:32;;;;;;;2.03;1.50;;;5.20;99.90;;;;;;4782415;28;20197;-75
2020/12/28 01:50:56;;;;;;;2.97;1.70;;;5.30;1.00;;;;;;4782522;28;20240;-75
2020/12/28 01:53:19;;;;;;;2.60;2.00;;;5.30;99.90;;;;;;4784387;28;20225;-75
2020/12/28 01:55:51;;;;;;;3.33;2.47;;;5.30;99.90;;;;;;4793804;28;20204;-75
2020/12/28 01:58:15;;;;;;;2.33;2.10;;;5.30;1.00;;;;;;4782147;28;20674;-74
2020/12/28 02:00:37;;;;;;;2.83;2.23;;;5.30;1.00;;;;;;4780451;28;20272;-73
2020/12/28 02:03:01;;;;;;;3.80;2.40;;;5.20;1.00;;;;;;4781117;28;20220;-73
2020/12/28 02:05:37;;;;;;;5.00;3.23;;;5.10;1.00;;;;;;4763024;29;20196;-73
2020/12/28 02:08:01;;;;;;;6.07;3.57;;;5.10;99.90;;;;;;4779467;28;20272;-74
2020/12/28 02:10:23;;;;;;;4.83;3.83;;;5.10;99.90;;;;;;4799362;28;20730;-75
2020/12/28 02:12:46;;;;;;;4.83;3.77;;;4.80;99.90;;;;;;4781863;28;20330;-74
2020/12/28 02:15:10;;;;;;;5.03;3.83;;;4.70;99.90;;;;;;4798043;28;20195;-76
2020/12/28 02:17:55;;;;;;;4.43;3.23;;;4.70;99.90;;;;;;4799640;28;20200;-74
2020/12/28 02:20:34;;;;;;;6.50;3.97;;;4.50;99.90;;;;;;4782230;28;20201;-76
2020/12/28 02:22:58;;;;;;;4.60;3.53;;;4.40;99.90;;;;;;4771973;28;20230;-78
2020/12/28 02:25:22;;;;;;;5.73;4.13;;;4.00;1.00;;;;;;4780972;28;20213;-78
2020/12/28 02:27:45;;;;;;;4.27;3.50;;;3.80;1.00;;;;;;4782020;28;20205;-79
2020/12/28 02:30:08;;;;;;;4.73;3.50;;;3.70;1.00;;;;;;4783711;28;20197;-74
2020/12/28 02:32:43;;;;;;;5.43;3.77;;;3.70;1.00;;;;;;4765979;28;20200;-73
2020/12/28 02:35:32;;;;;;;5.43;3.87;;;3.30;1.00;;;;;;4794433;28;20243;-76
2020/12/28 02:37:55;;;;;;;5.83;3.80;;;3.50;99.90;;;;;;4790347;28;20207;-73
2020/12/28 02:40:19;;;;;;;4.07;3.10;;;3.30;1.00;;;;;;4780888;28;20283;-72
2020/12/28 02:42:45;;;;;;;2.57;2.17;;;3.30;1.00;;;;;;4798404;28;20243;-77
2020/12/28 02:45:25;;;;;;;2.43;1.73;;;3.20;99.90;;;;;;4791669;28;20532;-75
2020/12/28 02:48:06;;;;;;;2.90;2.00;;;3.40;1.00;;;;;;4798834;28;20176;-73
2020/12/28 02:50:46;;;;;;;3.60;1.90;;;3.40;29.70;;;;;;4794762;28;20184;-73
2020/12/28 02:53:26;;;;;;;6.13;1.67;;;3.50;1.00;;;;;;4798837;28;20697;-76
2020/12/28 02:56:09;;;;;;;2.57;1.90;;;3.50;1.00;;;;;;4803139;28;20586;-76
2020/12/28 02:58:49;;;;;;;2.57;1.97;;;3.60;1.00;;;;;;4802860;28;20256;-77
2020/12/28 03:01:31;;;;;;;3.33;2.40;;;4.20;99.90;;;;;;4812139;28;20207;-73
2020/12/28 03:04:11;;;;;;;4.77;3.23;;;3.60;99.90;;;;;;4802397;28;20172;-76
2020/12/28 03:06:51;;;;;;;5.47;3.43;;;3.60;96.20;;;;;;4803001;28;20188;-73
2020/12/28 03:09:32;;;;;;;5.13;3.67;;;3.60;1.00;;;;;;4795250;28;20176;-75
2020/12/28 03:12:13;;;;;;;4.90;3.20;;;3.30;99.90;;;;;;4807296;28;20183;-73
2020/12/28 03:14:54;;;;;;;3.73;2.70;;;3.30;1.00;;;;;;4802464;28;20638;-75
2020/12/28 03:17:34;;;;;;;3.33;2.30;;;3.20;61.90;;;;;;4797528;28;20236;-74
2020/12/28 03:20:15;;;;;;;3.47;2.50;;;3.10;99.90;;;;;;4801158;28;20203;-74
2020/12/28 03:22:55;;;;;;;1.97;1.77;;;3.00;1.00;;;;;;4802343;28;20198;-77
2020/12/28 03:25:36;;;;;;;3.00;2.43;;;2.80;99.90;;;;;;4798981;28;20231;-75
2020/12/28 03:28:18;;;;;;;2.93;2.30;;;2.90;1.00;;;;;;4802382;28;20195;-75
2020/12/28 03:30:59;;;;;;;1.50;1.40;;;3.20;1.00;;;;;;4801493;28;20236;-76
2020/12/28 03:33:39;;;;;;;2.60;1.80;;;3.00;1.00;;;;;;4796446;28;20184;-74
2020/12/28 03:36:19;;;;;;;1.90;1.70;;;3.20;99.90;;;;;;4802242;28;20184;-82
2020/12/28 03:39:00;;;;;;;2.23;1.83;;;3.20;1.00;;;;;;4814753;28;20606;-72
2020/12/28 03:41:41;;;;;;;2.63;2.10;;;3.20;1.00;;;;;;4801512;28;20223;-75
2020/12/28 03:44:23;;;;;;;2.43;1.40;;;3.20;1.00;;;;;;4800996;28;20184;-77
2020/12/28 03:47:03;;;;;;;2.37;1.60;;;3.30;1.00;;;;;;4801900;28;20666;-75
2020/12/28 03:49:46;;;;;;;2.87;1.70;;;3.30;1.00;;;;;;4802682;28;20187;-75
2020/12/28 03:52:27;;;;;;;2.07;1.53;;;3.40;99.90;;;;;;4795728;28;20176;-75
2020/12/28 03:55:07;;;;;;;1.47;1.20;;;3.50;1.00;;;;;;4799974;28;20244;-76
2020/12/28 03:58:02;;;;;;;1.50;1.40;;;3.50;1.00;;;;;;4763004;28;20256;-75
2020/12/28 04:00:43;;;;;;;1.80;1.43;;;3.60;1.00;;;;;;4769453;28;20223;-75
2020/12/28 04:03:24;;;;;;;1.50;1.23;;;3.60;99.90;;;;;;4801366;28;20223;-74
2020/12/28 04:06:05;;;;;;;1.20;1.10;;;3.70;99.90;;;;;;4784220;28;20193;-73
2020/12/28 04:08:45;;;;;;;1.83;1.20;;;3.50;99.90;;;;;;4797082;28;20678;-75
2020/12/28 04:11:25;;;;;;;1.30;1.20;;;3.60;99.90;;;;;;4794638;28;20305;-75
2020/12/28 04:13:58;;;;;;;1.50;1.30;;;3.70;37.00;;;;;;4783078;28;20268;-74
2020/12/28 04:16:21;;;;;;;1.60;1.20;;;3.70;1.00;;;;;;4801162;28;21826;-75
2020/12/28 04:18:43;;;;;;;1.63;1.47;;;3.70;1.00;;;;;;4808291;28;20207;-74
2020/12/28 04:21:06;;;;;;;1.43;1.33;;;3.70;1.00;;;;;;4801094;28;20709;-80
2020/12/28 04:23:28;;;;;;;1.50;1.40;;;3.60;1.00;;;;;;4783448;28;20675;-76
2020/12/28 04:25:50;;;;;;;1.23;1.13;;;3.60;1.00;;;;;;4783527;28;20260;-77
2020/12/28 04:28:12;;;;;;;1.90;1.47;;;3.60;1.00;;;;;;4800700;28;20188;-77
2020/12/28 04:30:34;;;;;;;2.00;1.30;;;3.70;1.00;;;;;;4800948;28;20236;-75
2020/12/28 04:32:57;;;;;;;1.83;1.60;;;3.60;1.00;;;;;;4801163;28;20571;-75
2020/12/28 04:35:19;;;;;;;2.23;1.60;;;3.60;99.90;;;;;;4799629;28;20228;-78
2020/12/28 04:37:41;;;;;;;1.87;1.20;;;3.50;90.80;;;;;;4781331;29;20188;-77
2020/12/28 04:40:04;;;;;;;1.70;1.50;;;3.50;90.30;;;;;;4781191;28;20281;-78
2020/12/28 04:42:28;;;;;;;1.70;1.57;;;3.40;99.70;;;;;;4793924;28;20184;-78
2020/12/28 04:44:50;;;;;;;3.00;1.60;;;3.30;99.90;;;;;;4800737;28;20192;-74
2020/12/28 04:47:12;;;;;;;1.50;1.40;;;3.40;1.00;;;;;;4799713;28;20188;-75
2020/12/28 04:49:36;;;;;;;1.63;1.40;;;3.30;99.90;;;;;;4783570;28;20636;-75
2020/12/28 04:51:58;;;;;;;1.50;1.40;;;3.20;1.00;;;;;;4783519;28;20212;-75
2020/12/28 04:54:20;;;;;;;1.83;1.60;;;3.20;1.00;;;;;;4791391;28;20207;-76
2020/12/28 04:56:42;;;;;;;1.60;1.50;;;3.20;1.00;;;;;;4800032;28;20234;-80
2020/12/28 04:59:05;;;;;;;2.07;1.50;;;3.20;1.00;;;;;;4800481;28;20243;-74
2020/12/28 05:01:27;;;;;;;2.60;1.60;;;3.20;1.00;;;;;;4791481;28;20579;-74
2020/12/28 05:03:50;;;;;;;1.83;1.50;;;3.20;1.00;;;;;;4800612;28;20247;-74
2020/12/28 05:06:15;;;;;;;2.03;1.40;;;3.20;1.00;;;;;;4789931;28;20200;-78
2020/12/28 05:08:43;;;;;;;1.40;1.20;;;3.20;1.00;;;;;;4799782;28;20682;-78
2020/12/28 05:11:09;;;;;;;1.70;1.10;;;3.30;1.00;;;;;;4768518;28;20213;-74
2020/12/28 05:13:31;;;;;;;1.90;1.50;;;3.20;99.90;;;;;;4778159;28;20242;-77
2020/12/28 05:15:55;;;;;;;1.80;1.27;;;3.20;6.80;;;;;;4796996;28;20524;-75
2020/12/28 05:18:18;;;;;;;2.07;1.27;;;3.30;99.90;;;;;;4799027;28;20192;-74
2020/12/28 05:20:43;;;;;;;1.47;1.33;;;3.20;1.00;;;;;;4800520;28;20552;-72
2020/12/28 05:23:07;;;;;;;1.70;1.30;;;3.30;1.00;;;;;;4800237;28;20196;-73
2020/12/28 05:25:30;;;;;;;1.50;1.40;;;3.10;99.90;;;;;;4800248;28;20212;-75
2020/12/28 05:27:55;;;;;;;1.67;1.43;;;3.30;99.90;;;;;;4783037;28;20775;-77
2020/12/28 05:30:21;;;;;;;2.17;1.77;;;3.10;99.90;;;;;;4799155;28;20188;-79
2020/12/28 05:32:44;;;;;;;1.90;1.60;;;3.30;99.90;;;;;;4783315;28;20232;-77
2020/12/28 05:35:06;;;;;;;1.43;1.27;;;3.30;64.40;;;;;;4800035;28;20239;-76
2020/12/28 05:37:30;;;;;;;1.70;1.40;;;3.30;99.90;;;;;;4782992;28;20246;-77
2020/12/28 05:39:53;;;;;;;1.40;1.30;;;3.30;99.90;;;;;;4781919;28;20243;-75
2020/12/28 05:42:15;;;;;;;1.60;1.30;;;3.30;1.00;;;;;;4782420;28;20651;-77
2020/12/28 05:44:39;;;;;;;1.33;1.10;;;3.40;1.00;;;;;;4799444;28;20188;-77
2020/12/28 05:47:04;;;;;;;1.53;1.20;;;3.20;1.00;;;;;;4782774;28;20193;-73
2020/12/28 05:49:32;;;;;;;2.20;1.67;;;3.30;1.00;;;;;;4782492;28;20550;-79
2020/12/28 05:51:58;;;;;;;1.57;1.23;;;3.30;1.00;;;;;;4781916;28;20253;-75
2020/12/28 05:54:21;;;;;;;1.97;1.77;;;3.20;1.00;;;;;;4781909;28;20220;-81
2020/12/28 05:56:44;;;;;;;2.00;1.80;;;3.30;1.00;;;;;;4800039;28;20250;-74
2020/12/28 05:59:07;;;;;;;1.93;1.73;;;3.10;1.00;;;;;;4799940;28;20247;-73
2020/12/28 06:01:33;;;;;;;2.37;1.60;;;3.10;1.00;;;;;;4770435;28;20581;-75
2020/12/28 06:04:01;;;;;;;2.20;1.43;;;3.20;1.00;;;;;;4799588;28;20587;-77
2020/12/28 06:06:24;;;;;;;1.23;1.13;;;3.30;1.00;;;;;;4799909;28;20239;-76
2020/12/28 06:08:46;;;;;;;2.40;1.80;;;3.20;1.00;;;;;;4809673;28;20227;-81
2020/12/28 06:11:08;;;;;;;2.20;1.47;;;3.20;1.00;;;;;;4800061;28;20215;-77
2020/12/28 06:13:31;;;;;;;1.87;1.50;;;3.20;1.00;;;;;;4780578;28;20209;-74
2020/12/28 06:16:00;;;;;;;2.60;1.80;;;3.20;1.00;;;;;;4799404;28;20192;-79
2020/12/28 06:18:22;;;;;;;2.93;2.17;;;3.30;1.00;;;;;;4799342;28;20196;-75
2020/12/28 06:20:44;;;;;;;3.47;2.20;;;3.20;1.00;;;;;;4799745;28;20211;-80
2020/12/28 06:23:07;;;;;;;2.47;2.23;;;3.20;99.90;;;;;;4798667;28;20539;-82
2020/12/28 06:25:29;;;;;;;3.17;1.93;;;3.20;99.90;;;;;;4798765;28;20266;-78
2020/12/28 06:27:51;;;;;;;2.73;2.40;;;3.20;99.90;;;;;;4781828;28;20698;-77
2020/12/28 06:30:16;;;;;;;3.17;1.97;;;3.10;99.90;;;;;;4802594;28;20184;-76
2020/12/28 06:32:39;;;;;;;2.30;2.00;;;3.30;1.00;;;;;;4807725;28;20200;-76
2020/12/28 06:35:03;;;;;;;3.03;2.03;;;3.00;48.20;;;;;;4799270;28;20188;-74
2020/12/28 06:37:27;;;;;;;3.30;2.67;;;3.10;99.90;;;;;;4798200;28;20196;-79
2020/12/28 06:39:56;;;;;;;1.20;1.10;;;3.00;99.90;;;;;;4785968;28;20225;-76
2020/12/28 06:42:20;;;;;;;1.80;1.50;;;3.20;1.00;;;;;;4802928;28;20195;-79
2020/12/28 06:44:43;;;;;;;2.83;1.90;;;3.30;1.00;;;;;;4802094;28;20200;-76
2020/12/28 06:47:17;;;;;;;1.80;1.47;;;3.40;99.90;;;;;;4785150;28;20208;-75
2020/12/28 06:49:41;;;;;;;2.73;1.70;;;3.60;1.00;;;;;;4799407;28;20188;-80
2020/12/28 06:52:03;;;;;;;3.40;1.20;;;3.70;99.90;;;;;;4800707;28;20192;-76
2020/12/28 06:54:25;;;;;;;1.27;1.10;;;3.80;1.70;;;;;;4801637;28;20196;-78
2020/12/28 06:56:48;;;;;;;2.03;1.60;;;4.10;1.00;;;;;;4802291;28;20312;-78
2020/12/28 06:59:13;;;;;;;1.47;1.30;;;4.00;1.00;;;;;;4802603;28;20196;-77
2020/12/28 07:01:36;;;;;;;1.53;1.40;;;4.20;99.90;;;;;;4801092;28;20693;-76
2020/12/28 07:03:59;;;;;;;0.80;0.80;;;4.20;1.00;;;;;;4784955;28;20212;-76
2020/12/28 07:06:21;;;;;;;1.77;1.13;;;4.40;1.00;;;;;;4801614;28;20196;-76
2020/12/28 07:08:43;;;;;;;1.10;1.10;;;4.70;99.90;;;;;;4802379;28;20283;-76
2020/12/28 07:11:06;;;;;;;1.30;1.20;;;5.00;1.00;;;;;;4802455;28;20212;-77
2020/12/28 07:13:29;;;;;;;2.07;1.70;;;6.10;99.90;;;;;;4802232;28;20245;-75
2020/12/28 07:15:51;;;;;;;3.50;2.63;;;6.80;1.00;;;;;;4802835;28;20251;-75
2020/12/28 07:18:13;;;;;;;2.23;1.90;;;7.10;1.00;;;;;;4767625;28;20257;-75
2020/12/28 07:20:37;;;;;;;3.07;2.33;;;8.60;1.00;;;;;;4768933;28;20699;-76
2020/12/28 07:22:59;;;;;;;1.80;1.70;;;8.70;1.00;;;;;;4768877;28;20664;-81
2020/12/28 07:25:21;;;;;;;2.03;1.40;;;9.10;1.00;;;;;;4801860;28;20239;-78
2020/12/28 07:27:43;;;;;;;1.77;1.40;;;9.30;1.00;;;;;;4784655;28;20209;-81
2020/12/28 07:30:07;;;;;;;1.47;1.37;;;9.20;1.00;;;;;;4783837;28;20213;-75
2020/12/28 07:32:29;;;;;;;1.00;0.90;;;8.80;1.00;;;;;;4784795;28;20197;-77
2020/12/28 07:34:53;;;;;;;0.70;0.70;;;8.50;1.00;;;;;;4808880;28;20203;-77
2020/12/28 07:37:17;;;;;;;0.70;0.70;;;7.90;1.00;;;;;;4801560;28;20200;-74
2020/12/28 07:39:42;;;;;;;0.80;0.80;;;7.80;1.00;;;;;;4804851;28;20554;-77
2020/12/28 07:42:04;;;;;;;1.27;1.17;;;7.50;1.00;;;;;;4764433;28;20251;-75
2020/12/28 07:44:26;;;;;;;1.30;1.20;;;6.80;1.00;;;;;;4789992;28;20272;-78
2020/12/28 07:46:55;;;;;;;1.07;1.03;;;6.70;1.00;;;;;;4783808;28;20637;-78
2020/12/28 07:49:21;;;;;;;1.37;1.20;;;6.60;28.20;;;;;;4808345;28;20196;-75
2020/12/28 07:51:49;;;;;;;2.03;1.57;;;6.60;1.00;;;;;;4784518;28;20622;-79
2020/12/28 07:54:19;;;;;;;1.57;1.47;;;6.30;99.90;;;;;;4801522;28;20192;-74
2020/12/28 07:56:46;;;;;;;1.53;1.30;;;6.40;99.90;;;;;;4801891;28;20235;-78
2020/12/28 07:59:22;;;;;;;2.27;1.60;;;6.20;1.00;;;;;;4784650;28;20260;-76
2020/12/28 08:01:49;;;;;;;2.17;1.63;;;6.10;1.00;;;;;;4796046;28;20231;-78
2020/12/28 08:04:19;;;;;;;1.87;1.67;;;6.20;3.30;;;;;;4801232;28;20188;-77
2020/12/28 08:06:41;;;;;;;4.20;1.40;;;6.30;35.50;;;;;;4801625;28;20607;-78
2020/12/28 08:09:05;;;;;;;2.07;1.80;;;6.20;55.60;;;;;;4784008;28;20272;-78
2020/12/28 08:11:30;;;;;;;2.90;2.20;;;6.20;72.40;;;;;;4787638;28;20260;-79
2020/12/28 08:13:52;;;;;;;1.90;1.70;;;6.20;72.20;;;;;;4794197;28;20212;-74
2020/12/28 08:16:16;;;;;;;2.57;1.80;;;6.20;82.20;;;;;;4804445;28;20204;-75
2020/12/28 08:18:47;;;;;;;1.60;1.40;;;6.30;76.90;;;;;;4802976;28;20192;-77
2020/12/28 08:21:09;;;;;;;2.07;1.70;;;6.30;64.90;;;;;;4806857;28;20204;-80
2020/12/28 08:23:31;;;;;;;1.83;1.67;;;6.30;46.30;;;;;;4764135;29;20193;-76
2020/12/28 08:25:53;;;;;;;2.10;1.60;;;6.30;30.00;;;;;;4765783;28;20749;-75
2020/12/28 08:28:16;;;;;;;1.60;1.50;;;6.40;99.90;;;;;;4782029;28;20205;-78
2020/12/28 08:30:38;;;;;;;1.97;1.67;;;6.50;99.90;;;;;;4801309;28;20188;-80
2020/12/28 08:33:01;;;;;;;1.70;1.50;;;6.40;1.00;;;;;;4766760;28;20256;-76
2020/12/28 08:35:24;;;;;;;1.43;1.33;;;6.50;1.00;;;;;;4782109;28;20580;-76
2020/12/28 08:37:48;;;;;;;2.10;1.77;;;6.50;1.00;;;;;;4781795;28;20197;-75
2020/12/28 08:40:14;;;;;;;3.03;1.47;;;6.50;1.00;;;;;;4765200;28;20582;-77
2020/12/28 08:42:36;;;;;;;2.07;1.70;;;6.50;1.00;;;;;;4782566;28;20197;-77
2020/12/28 08:45:01;;;;;;;2.87;1.90;;;6.50;1.00;;;;;;4796274;28;20196;-78
2020/12/28 08:47:27;;;;;;;2.40;1.87;;;6.40;1.00;;;;;;4799614;28;20255;-77
2020/12/28 08:49:49;;;;;;;2.97;1.87;;;6.40;1.00;;;;;;4782407;28;20245;-79
2020/12/28 08:52:12;;;;;;;2.93;2.13;;;6.40;9.90;;;;;;4780311;28;20199;-78
2020/12/28 08:54:35;;;;;;;2.03;1.83;;;6.20;52.80;;;;;;4781625;28;20308;-78
2020/12/28 08:56:57;;;;;;;2.90;1.90;;;6.30;99.90;;;;;;4782866;28;20263;-75
2020/12/28 08:59:19;;;;;;;2.50;2.20;;;6.30;99.90;;;;;;4766284;28;20290;-75
2020/12/28 09:01:45;;;;;;;5.20;3.90;;;6.40;99.90;;;;;;4796568;28;20647;-77
2020/12/28 09:04:07;;;;;;;5.07;2.87;;;6.70;99.90;;;;;;4766646;28;20273;-81
2020/12/28 09:06:29;;;;;;;2.20;2.00;;;6.80;94.10;;;;;;4766028;28;20193;-76
2020/12/28 09:08:51;;;;;;;1.87;1.67;;;7.10;30.50;;;;;;4782782;28;20276;-74
2020/12/28 09:11:13;;;;;;;2.10;1.90;;;7.60;99.90;;;;;;4781453;28;20643;-77
2020/12/28 09:13:35;;;;;;;3.17;2.00;;;7.50;1.00;;;;;;4798998;28;20550;-77
2020/12/28 09:15:57;;;;;;;4.10;1.93;;;7.80;1.00;;;;;;4782498;28;20189;-79
2020/12/28 09:18:20;;;;;;;1.93;1.70;;;8.00;1.00;;;;;;4765728;28;20197;-75
2020/12/28 09:20:42;;;;;;;2.40;2.03;;;8.20;1.00;;;;;;4765137;28;20324;-76
2020/12/28 09:23:04;;;;;;;2.40;1.50;;;8.50;1.00;;;;;;4799622;28;20200;-76
2020/12/28 09:25:26;;;;;;;1.90;1.53;;;8.60;1.00;;;;;;4781090;28;20237;-77
2020/12/28 09:27:48;;;;;;;1.40;1.30;;;9.70;1.00;;;;;;4798488;28;20188;-77
2020/12/28 09:30:11;;;;;;;1.43;1.23;;;8.90;1.00;;;;;;4781626;28;20276;-75
2020/12/28 09:32:33;;;;;;;1.20;1.10;;;9.00;1.00;;;;;;4799663;28;20184;-75
2020/12/28 09:34:56;;;;;;;1.63;1.30;;;8.90;1.00;;;;;;4780868;28;20185;-76
2020/12/28 09:37:18;;;;;;;1.30;1.20;;;9.00;1.00;;;;;;4781771;28;20572;-78
2020/12/28 09:39:41;;;;;;;1.30;1.20;;;9.00;1.00;;;;;;4780775;28;20192;-73
2020/12/28 09:42:05;;;;;;;1.57;1.33;;;8.70;1.00;;;;;;4782170;28;20252;-76
2020/12/28 09:44:29;;;;;;;1.40;1.30;;;8.80;1.00;;;;;;4781478;28;20719;-78
2020/12/28 09:46:51;;;;;;;1.13;1.00;;;8.80;1.00;;;;;;4798816;28;20188;-76
2020/12/28 09:49:13;;;;;;;1.73;1.40;;;8.70;1.00;;;;;;4796063;28;20216;-78
2020/12/28 09:51:37;;;;;;;2.23;1.40;;;8.60;1.00;;;;;;4756652;29;20217;-80
2020/12/28 09:53:59;;;;;;;2.07;1.50;;;8.40;1.00;;;;;;4778170;28;20201;-77
2020/12/28 09:56:21;;;;;;;1.40;1.27;;;8.50;1.00;;;;;;4781122;28;20205;-78
2020/12/28 09:58:43;;;;;;;1.87;1.30;;;8.30;1.00;;;;;;4795648;28;20778;-78
2020/12/28 10:01:06;;;;;;;1.60;1.50;;;8.30;1.00;;;;;;4790360;28;20806;-76
2020/12/28 10:03:28;;;;;;;2.07;1.87;;;8.10;1.00;;;;;;4798880;28;20255;-75
2020/12/28 10:05:50;;;;;;;2.00;1.80;;;8.10;1.00;;;;;;4798617;28;20232;-74
2020/12/28 10:08:13;;;;;;;1.93;1.70;;;8.10;1.00;;;;;;4798694;28;20271;-75
2020/12/28 10:10:35;;;;;;;1.93;1.80;;;8.20;1.00;;;;;;4780594;28;20269;-80
2020/12/28 10:12:57;;;;;;;1.97;1.73;;;8.00;1.00;;;;;;4800940;28;20192;-73
2020/12/28 10:15:19;;;;;;;1.87;1.60;;;8.00;1.00;;;;;;4798826;28;20239;-77
2020/12/28 10:18:13;;;;;;;2.00;1.80;;;7.80;1.00;;;;;;4798631;28;20191;-74
2020/12/28 10:20:35;;;;;;;2.93;2.30;;;8.00;1.00;;;;;;4781307;28;20703;-80
2020/12/28 10:22:57;;;;;;;3.00;2.00;;;8.10;1.00;;;;;;4788919;28;20248;-74
2020/12/28 10:25:20;;;;;;;2.37;2.00;;;8.00;1.00;;;;;;4778704;28;20208;-74
2020/12/28 10:27:42;;;;;;;2.70;2.17;;;7.90;1.00;;;;;;4799086;28;20733;-78
2020/12/28 10:30:04;;;;;;;2.77;1.97;;;8.00;1.00;;;;;;4798597;28;20192;-79
2020/12/28 10:32:26;;;;;;;2.43;1.80;;;8.00;1.00;;;;;;4789371;28;20217;-76
2020/12/28 10:34:48;;;;;;;2.50;2.23;;;8.00;1.00;;;;;;4775745;28;20650;-78
2020/12/28 10:37:10;;;;;;;3.40;2.73;;;8.20;1.00;;;;;;4780803;28;20690;-74
2020/12/28 10:39:32;;;;;;;7.20;6.50;;;8.00;1.00;;;;;;4772242;28;20974;-74
2020/12/28 10:41:55;;;;;;;4.53;3.33;;;8.10;1.00;;;;;;4795549;28;20227;-73
2020/12/28 10:44:19;;;;;;;3.03;2.73;;;8.00;1.00;;;;;;4778372;28;20265;-71
2020/12/28 10:46:41;;;;;;;4.30;3.83;;;8.00;1.00;;;;;;4798036;28;20650;-72
2020/12/28 10:49:04;;;;;;;5.57;5.00;;;8.10;1.00;;;;;;4797872;28;20240;-72
2020/12/28 10:51:26;;;;;;;5.17;4.67;;;8.10;1.00;;;;;;4798172;28;20199;-71
2020/12/28 10:53:48;;;;;;;6.97;6.27;;;8.10;1.00;;;;;;4796211;28;20267;-78
2020/12/28 10:56:10;;;;;;;15.40;11.43;;;8.30;1.00;;;;;;4798052;28;20195;-73
2020/12/28 10:58:34;;;;;;;3.93;3.40;;;8.40;1.00;;;;;;4781205;28;20205;-73
2020/12/28 11:00:58;;;;;;;4.60;3.33;;;8.20;1.00;;;;;;4795981;28;20252;-71
2020/12/28 11:03:20;;;;;;;6.13;4.60;;;8.10;1.00;;;;;;4781185;28;20193;-74
2020/12/28 11:05:42;;;;;;;5.00;4.07;;;8.10;1.00;;;;;;4778671;28;20245;-73
2020/12/28 11:08:08;;;;;;;3.27;2.80;;;8.00;1.00;;;;;;4797992;28;20270;-71
2020/12/28 11:10:33;;;;;;;3.30;2.40;;;8.00;1.00;;;;;;4768664;29;20634;-72
2020/12/28 11:12:58;;;;;;;3.90;3.07;;;8.00;1.00;;;;;;4780034;28;20193;-71
2020/12/28 11:15:25;;;;;;;5.17;3.80;;;7.90;1.00;;;;;;4799139;28;20219;-71
2020/12/28 11:17:52;;;;;;;3.67;2.93;;;7.80;1.00;;;;;;4784328;28;20265;-72
2020/12/28 11:20:20;;;;;;;3.23;2.47;;;7.80;1.00;;;;;;4784114;28;20244;-71
2020/12/28 11:22:48;;;;;;;3.53;2.43;;;7.80;1.00;;;;;;4801306;28;20212;-72
2020/12/28 11:25:14;;;;;;;2.10;1.90;;;7.70;1.00;;;;;;4801399;28;20592;-72
2020/12/28 11:27:43;;;;;;;4.80;2.03;;;7.80;1.00;;;;;;4802489;28;20198;-74
2020/12/28 11:30:09;;;;;;;3.80;2.53;;;7.90;1.00;;;;;;4818231;28;20680;-73
2020/12/28 11:32:35;;;;;;;1.70;1.60;;;7.70;1.00;;;;;;4770171;28;20317;-73
2020/12/28 11:35:08;;;;;;;1.93;1.60;;;7.70;1.00;;;;;;4800717;28;20265;-72
2020/12/28 11:37:32;;;;;;;1.20;1.10;;;7.70;1.00;;;;;;4800670;28;20176;-73
2020/12/28 11:39:54;;;;;;;2.53;1.47;;;8.10;1.00;;;;;;4784049;28;20718;-73
2020/12/28 11:42:18;;;;;;;1.57;1.33;;;7.80;1.00;;;;;;4799810;28;20255;-73
2020/12/28 11:44:41;;;;;;;1.83;1.73;;;7.70;1.00;;;;;;4800266;28;20183;-73
2020/12/28 11:47:03;;;;;;;2.00;1.80;;;7.70;1.00;;;;;;4801443;28;20184;-73
2020/12/28 11:49:26;;;;;;;18.40;13.80;;;7.60;1.00;;;;;;4799295;28;20192;-73
2020/12/28 11:51:52;;;;;;;11.63;6.70;;;7.80;1.00;;;;;;4801208;28;20614;-72
2020/12/28 11:54:14;;;;;;;4.53;3.00;;;7.50;1.00;;;;;;4800149;28;20204;-73
2020/12/28 11:56:36;;;;;;;6.47;4.13;;;7.50;1.00;;;;;;4801052;28;20192;-71
2020/12/28 11:58:58;;;;;;;4.67;4.20;;;7.60;1.00;;;;;;4800201;28;20196;-73
2020/12/28 12:01:20;;;;;;;4.57;3.90;;;7.50;1.00;;;;;;4749284;28;20237;-72
2020/12/28 12:03:44;;;;;;;3.83;2.93;;;7.40;1.00;;;;;;4782857;28;20192;-72
2020/12/28 12:06:13;;;;;;;4.30;2.73;;;7.40;1.00;;;;;;4798484;28;20247;-73
2020/12/28 12:08:35;;;;;;;3.90;2.37;;;7.30;1.00;;;;;;4794439;28;20228;-72
2020/12/28 12:10:57;;;;;;;8.93;7.10;;;7.20;1.00;;;;;;4799321;28;20643;-72
2020/12/28 12:13:20;;;;;;;4.03;3.23;;;7.30;1.00;;;;;;4783751;28;20296;-73
2020/12/28 12:15:46;;;;;;;3.53;2.87;;;7.40;1.00;;;;;;4800129;28;20196;-72
2020/12/28 12:18:08;;;;;;;3.80;3.10;;;7.30;1.00;;;;;;4800493;28;20236;-72
2020/12/28 12:20:30;;;;;;;4.90;3.33;;;7.40;1.00;;;;;;4782843;28;20778;-72
2020/12/28 12:22:54;;;;;;;3.00;2.67;;;7.40;1.00;;;;;;4800579;28;20678;-76
2020/12/28 12:25:16;;;;;;;3.00;2.60;;;7.20;1.00;;;;;;4781700;28;20635;-73
2020/12/28 12:27:38;;;;;;;3.23;2.63;;;7.30;1.00;;;;;;4782538;28;20201;-72
2020/12/28 12:30:01;;;;;;;2.50;2.30;;;7.50;1.00;;;;;;4783116;28;20244;-73
2020/12/28 12:32:23;;;;;;;3.33;2.53;;;7.30;1.00;;;;;;4799632;28;20192;-71
2020/12/28 12:34:45;;;;;;;2.23;1.93;;;7.40;1.00;;;;;;4800868;28;20706;-73
2020/12/28 12:37:09;;;;;;;2.33;1.43;;;7.40;1.00;;;;;;4799574;28;20211;-73
2020/12/28 12:39:33;;;;;;;0.80;0.80;;;7.40;1.00;;;;;;4776037;29;20739;-74
2020/12/28 12:41:55;;;;;;;2.20;1.30;;;7.40;1.00;;;;;;4796166;28;20215;-74
2020/12/28 12:44:17;;;;;;;1.97;1.50;;;7.40;1.00;;;;;;4782404;28;20776;-73
2020/12/28 12:46:39;;;;;;;5.17;2.80;;;7.60;1.00;;;;;;4798513;28;20192;-75
2020/12/28 12:49:01;;;;;;;1.77;1.33;;;7.50;1.00;;;;;;4782470;28;20590;-76
2020/12/28 12:51:23;;;;;;;4.10;2.40;;;7.40;1.00;;;;;;4782219;28;20196;-74
2020/12/28 12:53:45;;;;;;;1.93;1.30;;;7.40;1.00;;;;;;4781349;28;20921;-75